createdAt,value
2019-03-24T00:01:01.024Z,8.40
2019-03-24T00:03:32.408Z,8.83
2019-03-24T00:06:03.873Z,8.33
2019-03-24T00:08:35.285Z,9.03
2019-03-24T00:11:06.861Z,8.43
2019-03-24T00:13:38.245Z,7.90
2019-03-24T00:16:09.600Z,8.23
2019-03-24T00:18:40.992Z,7.30
2019-03-24T00:21:12.468Z,7.25
2019-03-24T00:23:43.884Z,6.95
2019-03-24T00:26:15.268Z,7.80
2019-03-24T00:28:46.662Z,7.67
2019-03-24T00:31:18.151Z,7.92
2019-03-24T00:33:49.557Z,7.55
2019-03-24T00:36:20.942Z,7.47
2019-03-24T00:38:52.320Z,7.28
2019-03-24T00:41:23.748Z,6.33
2019-03-24T00:43:55.116Z,8.00
2019-03-24T00:46:26.509Z,7.45
2019-03-24T00:48:57.919Z,7.20
2019-03-24T00:51:29.394Z,7.80
2019-03-24T00:54:00.800Z,7.00
2019-03-24T00:56:32.196Z,7.67
2019-03-24T00:59:03.593Z,7.53
2019-03-24T01:01:34.984Z,7.47
2019-03-24T01:04:06.482Z,7.37
2019-03-24T01:06:37.882Z,6.25
2019-03-24T01:09:09.993Z,6.35
2019-03-24T01:11:41.349Z,6.35
2019-03-24T01:14:12.753Z,5.90
2019-03-24T01:16:44.124Z,5.35
2019-03-24T01:19:15.557Z,5.67
2019-03-24T01:21:47.032Z,5.53
2019-03-24T01:24:18.436Z,5.40
2019-03-24T01:26:49.797Z,5.58
2019-03-24T01:29:21.182Z,4.90
2019-03-24T01:31:52.546Z,4.58
2019-03-24T01:34:23.972Z,4.67
2019-03-24T01:36:55.380Z,4.20
2019-03-24T01:39:26.764Z,3.70
2019-03-24T01:41:58.158Z,4.10
2019-03-24T01:44:29.646Z,4.03
2019-03-24T01:47:01.138Z,3.52
2019-03-24T01:49:32.541Z,3.37
2019-03-24T01:52:04.041Z,2.90
2019-03-24T01:54:35.494Z,3.10
2019-03-24T01:57:06.872Z,2.85
2019-03-24T01:59:38.288Z,2.92
2019-03-24T02:02:09.695Z,3.33
2019-03-24T02:04:42.234Z,3.30
2019-03-24T02:07:13.730Z,3.40
2019-03-24T02:09:45.158Z,3.77
2019-03-24T02:12:16.630Z,3.27
2019-03-24T02:14:48.020Z,3.20
2019-03-24T02:17:19.388Z,2.85
2019-03-24T02:19:51.596Z,2.77
2019-03-24T02:22:22.975Z,2.80
2019-03-24T02:24:54.367Z,2.90
2019-03-24T02:27:25.768Z,3.45
2019-03-24T02:29:57.156Z,2.58
2019-03-24T02:32:28.539Z,2.70
2019-03-24T02:34:59.933Z,2.42
2019-03-24T02:37:31.334Z,2.37
2019-03-24T02:40:02.705Z,2.83
2019-03-24T02:42:34.091Z,2.40
2019-03-24T02:45:05.614Z,2.55
2019-03-24T02:47:39.383Z,2.55
2019-03-24T02:50:11.184Z,2.70
2019-03-24T02:52:42.562Z,2.17
2019-03-24T02:55:14.140Z,2.17
2019-03-24T02:57:45.524Z,2.17
2019-03-24T03:00:17.426Z,2.40
2019-03-24T03:02:48.914Z,2.42
2019-03-24T03:05:20.312Z,2.58
2019-03-24T03:07:51.696Z,2.72
2019-03-24T03:10:23.111Z,2.70
2019-03-24T03:12:54.489Z,2.80
2019-03-24T03:15:25.891Z,2.75
2019-03-24T03:17:57.248Z,2.50
2019-03-24T03:20:28.729Z,2.58
2019-03-24T03:23:00.217Z,2.40
2019-03-24T03:25:31.671Z,2.65
2019-03-24T03:28:03.066Z,2.42
2019-03-24T03:30:34.898Z,2.77
2019-03-24T03:33:08.528Z,2.02
2019-03-24T03:35:39.978Z,2.45
2019-03-24T03:38:11.349Z,1.95
2019-03-24T03:40:42.869Z,2.25
2019-03-24T03:43:14.436Z,2.75
2019-03-24T03:45:45.888Z,2.15
2019-03-24T03:48:18.348Z,2.22
2019-03-24T03:50:49.745Z,2.20
2019-03-24T03:53:21.163Z,2.12
2019-03-24T03:55:52.601Z,2.15
2019-03-24T03:58:23.977Z,2.25
2019-03-24T04:00:55.357Z,2.40
2019-03-24T04:03:26.766Z,2.67
2019-03-24T04:05:58.173Z,2.58
2019-03-24T04:08:29.555Z,2.17
2019-03-24T04:11:00.995Z,2.65
2019-03-24T04:13:32.386Z,2.30
2019-03-24T04:16:03.791Z,2.20
2019-03-24T04:18:35.168Z,2.60
2019-03-24T04:21:06.694Z,2.62
2019-03-24T04:23:38.103Z,2.72
2019-03-24T04:26:09.505Z,3.27
2019-03-24T04:28:40.909Z,2.27
2019-03-24T04:31:12.339Z,2.25
2019-03-24T04:33:43.794Z,2.95
2019-03-24T04:36:15.217Z,2.87
2019-03-24T04:38:46.607Z,2.40
2019-03-24T04:41:17.986Z,2.02
2019-03-24T04:43:49.384Z,2.50
2019-03-24T04:46:20.804Z,2.72
2019-03-24T04:48:52.212Z,2.27
2019-03-24T04:51:23.630Z,2.42
2019-03-24T04:53:54.998Z,2.47
2019-03-24T04:56:26.396Z,2.33
2019-03-24T04:58:57.779Z,2.87
2019-03-24T05:01:29.187Z,2.87
2019-03-24T05:04:00.594Z,2.33
2019-03-24T05:06:32.524Z,3.17
2019-03-24T05:09:05.124Z,2.50
2019-03-24T05:11:36.876Z,3.40
2019-03-24T05:14:09.249Z,4.87
2019-03-24T05:16:40.665Z,3.98
2019-03-24T05:19:12.074Z,2.92
2019-03-24T05:21:43.573Z,2.60
2019-03-24T05:24:14.945Z,2.90
2019-03-24T05:26:46.344Z,2.65
2019-03-24T05:29:17.754Z,2.67
2019-03-24T05:31:49.164Z,2.83
2019-03-24T05:34:20.553Z,2.87
2019-03-24T05:36:51.924Z,2.52
2019-03-24T05:39:23.292Z,2.55
2019-03-24T05:41:54.740Z,2.65
2019-03-24T05:44:26.190Z,2.90
2019-03-24T05:46:57.609Z,2.60
2019-03-24T05:49:29.004Z,2.70
2019-03-24T05:52:00.437Z,4.10
2019-03-24T05:54:31.811Z,2.52
2019-03-24T05:57:03.228Z,2.62
2019-03-24T05:59:34.608Z,2.70
2019-03-24T06:02:06.058Z,2.90
2019-03-24T06:04:37.767Z,2.62
2019-03-24T06:07:09.163Z,2.75
2019-03-24T06:09:40.519Z,2.05
2019-03-24T06:12:12.028Z,2.60
2019-03-24T06:14:44.421Z,2.55
2019-03-24T06:17:15.815Z,2.52
2019-03-24T06:19:47.291Z,2.72
2019-03-24T06:22:18.720Z,2.87
2019-03-24T06:24:50.144Z,3.55
2019-03-24T06:27:21.580Z,4.58
2019-03-24T06:29:52.993Z,3.17
2019-03-24T06:32:24.414Z,3.75
2019-03-24T06:34:55.826Z,3.70
2019-03-24T06:37:27.254Z,3.62
2019-03-24T06:39:58.697Z,3.00
2019-03-24T06:42:30.100Z,2.85
2019-03-24T06:45:01.503Z,3.00
2019-03-24T06:47:32.908Z,3.00
2019-03-24T06:50:04.408Z,2.80
2019-03-24T06:52:35.924Z,3.22
2019-03-24T06:55:07.492Z,2.58
2019-03-24T06:57:39.964Z,2.83
2019-03-24T07:00:12.072Z,3.20
2019-03-24T07:02:43.479Z,3.15
2019-03-24T07:05:15.256Z,2.55
2019-03-24T07:07:46.731Z,2.95
2019-03-24T07:10:18.116Z,2.87
2019-03-24T07:12:51.425Z,2.85
2019-03-24T07:15:22.574Z,3.30
2019-03-24T07:17:53.960Z,2.90
2019-03-24T07:20:25.334Z,2.90
2019-03-24T07:22:56.703Z,2.67
2019-03-24T07:25:28.062Z,2.50
2019-03-24T07:27:59.444Z,2.87
2019-03-24T07:30:30.849Z,2.80
2019-03-24T07:33:02.256Z,2.65
2019-03-24T07:35:33.652Z,2.60
2019-03-24T07:38:05.116Z,2.50
2019-03-24T07:40:36.573Z,2.45
2019-03-24T07:43:08.018Z,2.42
2019-03-24T07:45:39.493Z,2.25
2019-03-24T07:48:18.776Z,2.95
2019-03-24T07:50:43.961Z,2.47
2019-03-24T07:53:15.460Z,2.77
2019-03-24T07:55:47.920Z,3.72
2019-03-24T07:58:19.361Z,2.90
2019-03-24T08:00:50.748Z,2.40
2019-03-24T08:03:22.156Z,2.67
2019-03-24T08:05:53.561Z,2.30
2019-03-24T08:08:24.952Z,2.20
2019-03-24T08:10:56.357Z,2.20
2019-03-24T08:13:27.748Z,2.30
2019-03-24T08:15:59.140Z,3.05
2019-03-24T08:18:30.600Z,2.80
2019-03-24T08:21:01.993Z,2.30
2019-03-24T08:23:33.380Z,2.33
2019-03-24T08:26:05.070Z,2.15
2019-03-24T08:28:36.464Z,2.30
2019-03-24T08:31:07.835Z,1.90
2019-03-24T08:33:39.224Z,2.10
2019-03-24T08:36:10.592Z,1.70
2019-03-24T08:38:42.020Z,2.50
2019-03-24T08:41:13.448Z,2.25
2019-03-24T08:43:45.032Z,2.37
2019-03-24T08:46:16.476Z,2.30
2019-03-24T08:48:47.841Z,1.85
2019-03-24T08:51:19.336Z,2.10
2019-03-24T08:53:50.804Z,1.70
2019-03-24T08:56:22.160Z,1.40
2019-03-24T08:58:53.560Z,1.98
2019-03-24T09:01:24.938Z,1.37
2019-03-24T09:03:56.336Z,1.80
2019-03-24T09:06:27.790Z,1.67
2019-03-24T09:08:59.227Z,1.75
2019-03-24T09:11:31.448Z,2.12
2019-03-24T09:14:03.146Z,2.98
2019-03-24T09:16:34.595Z,1.50
2019-03-24T09:19:06.104Z,1.52
2019-03-24T09:21:37.472Z,1.45
2019-03-24T09:24:08.902Z,1.67
2019-03-24T09:26:40.308Z,1.37
2019-03-24T09:29:11.660Z,1.30
2019-03-24T09:31:43.079Z,1.55
2019-03-24T09:34:14.492Z,1.87
2019-03-24T09:36:45.903Z,1.70
2019-03-24T09:39:17.332Z,1.15
2019-03-24T09:41:48.708Z,1.62
2019-03-24T09:44:20.099Z,1.52
2019-03-24T09:46:51.488Z,1.80
2019-03-24T09:49:22.868Z,1.35
2019-03-24T09:51:54.250Z,1.82
2019-03-24T09:54:25.654Z,1.52
2019-03-24T09:56:57.028Z,1.47
2019-03-24T09:59:28.423Z,1.37
2019-03-24T10:01:59.801Z,1.37
2019-03-24T10:04:31.168Z,1.92
2019-03-24T10:07:02.554Z,1.70
2019-03-24T10:09:33.984Z,1.30
2019-03-24T10:12:05.400Z,1.47
2019-03-24T10:14:36.829Z,1.60
2019-03-24T10:17:08.207Z,1.57
2019-03-24T10:19:40.655Z,1.52
2019-03-24T10:22:12.072Z,1.65
2019-03-24T10:24:43.456Z,1.50
2019-03-24T10:27:14.867Z,1.60
2019-03-24T10:29:46.272Z,1.50
2019-03-24T10:32:17.630Z,1.50
2019-03-24T10:34:49.017Z,1.60
2019-03-24T10:37:20.406Z,1.62
2019-03-24T10:39:51.822Z,1.50
2019-03-24T10:42:23.164Z,1.30
2019-03-24T10:44:54.637Z,1.67
2019-03-24T10:47:26.029Z,1.27
2019-03-24T10:49:57.465Z,1.42
2019-03-24T10:52:30.604Z,1.27
2019-03-24T10:55:01.942Z,3.67
2019-03-24T10:57:34.604Z,1.87
2019-03-24T11:00:07.448Z,1.22
2019-03-24T11:02:38.956Z,1.32
2019-03-24T11:05:12.178Z,1.25
2019-03-24T11:07:43.573Z,1.37
2019-03-24T11:10:16.151Z,1.35
2019-03-24T11:12:48.252Z,1.40
2019-03-24T11:15:19.667Z,1.57
2019-03-24T11:17:57.054Z,1.42
2019-03-24T11:20:33.522Z,1.60
2019-03-24T11:23:06.532Z,1.50
2019-03-24T11:25:41.233Z,1.50
2019-03-24T11:28:12.711Z,1.60
2019-03-24T11:30:46.729Z,1.40
2019-03-24T11:33:18.132Z,1.20
2019-03-24T11:35:49.685Z,1.25
2019-03-24T11:38:22.793Z,1.20
2019-03-24T11:40:56.692Z,1.47
2019-03-24T11:43:28.144Z,1.80
2019-03-24T11:45:59.550Z,1.37
2019-03-24T11:48:31.072Z,1.40
2019-03-24T11:51:02.494Z,1.60
2019-03-24T11:53:33.908Z,1.45
2019-03-24T11:56:05.713Z,1.42
2019-03-24T11:58:37.120Z,1.05
2019-03-24T12:01:14.821Z,1.27
2019-03-24T12:03:47.899Z,1.40
2019-03-24T12:06:19.735Z,1.60
2019-03-24T12:08:51.241Z,1.20
2019-03-24T12:11:22.661Z,1.02
2019-03-24T12:13:54.142Z,1.10
2019-03-24T12:16:25.571Z,1.37
2019-03-24T12:18:56.995Z,1.50
2019-03-24T12:21:28.413Z,2.33
2019-03-24T12:23:59.837Z,2.30
2019-03-24T12:26:31.260Z,2.37
2019-03-24T12:29:02.682Z,4.08
2019-03-24T12:31:35.149Z,4.28
2019-03-24T12:34:09.477Z,3.15
2019-03-24T12:36:40.884Z,2.50
2019-03-24T12:39:12.283Z,2.60
2019-03-24T12:41:43.753Z,2.20
2019-03-24T12:44:15.176Z,1.70
2019-03-24T12:46:50.122Z,1.75
2019-03-24T12:49:21.281Z,2.10
2019-03-24T12:51:52.675Z,1.98
2019-03-24T12:54:25.511Z,3.12
2019-03-24T12:56:57.086Z,3.00
2019-03-24T12:59:28.454Z,2.20
2019-03-24T13:01:59.917Z,2.30
2019-03-24T13:04:31.333Z,2.60
2019-03-24T13:07:02.775Z,2.58
2019-03-24T13:09:34.208Z,1.98
2019-03-24T13:12:05.845Z,1.70
2019-03-24T13:14:37.269Z,2.22
2019-03-24T13:17:08.693Z,1.87
2019-03-24T13:19:40.110Z,1.90
2019-03-24T13:22:11.483Z,2.47
2019-03-24T13:24:42.899Z,2.95
2019-03-24T13:27:14.542Z,3.50
2019-03-24T13:29:45.948Z,4.20
2019-03-24T13:32:18.634Z,5.10
2019-03-24T13:34:50.037Z,7.05
2019-03-24T13:37:21.585Z,9.00
2019-03-24T13:39:53.028Z,8.10
2019-03-24T13:42:24.459Z,8.10
2019-03-24T13:44:55.853Z,5.62
2019-03-24T15:09:24.463Z,12.10
2019-03-24T15:12:13.963Z,10.30
2019-03-24T15:14:45.363Z,11.45
2019-03-24T15:17:16.791Z,9.23
2019-03-24T15:19:48.185Z,8.63
2019-03-24T15:22:19.647Z,8.30
2019-03-24T15:24:51.036Z,10.25
2019-03-24T15:27:22.528Z,33.75
2019-03-24T15:29:54.202Z,12.05
2019-03-24T15:32:25.912Z,7.50
2019-03-24T15:34:57.336Z,7.90
2019-03-24T15:37:28.824Z,5.20
2019-03-24T15:40:00.426Z,5.15
2019-03-24T15:42:31.840Z,4.33
2019-03-24T15:45:03.324Z,4.35
2019-03-24T15:47:34.816Z,4.05
2019-03-24T15:50:06.852Z,3.67
2019-03-24T15:52:38.482Z,3.05
2019-03-24T15:55:09.940Z,3.58
2019-03-24T15:57:41.344Z,2.55
2019-03-24T16:00:15.488Z,2.50
2019-03-24T16:02:46.948Z,2.42
2019-03-24T16:05:18.312Z,2.85
2019-03-24T16:07:49.872Z,2.37
2019-03-24T16:10:22.090Z,2.72
2019-03-24T16:12:53.531Z,2.47
2019-03-24T16:15:24.962Z,3.90
2019-03-24T16:17:56.409Z,4.10
2019-03-24T16:20:29.684Z,3.60
2019-03-24T16:23:01.188Z,2.85
2019-03-24T16:25:32.616Z,3.17
2019-03-24T16:28:04.206Z,3.40
2019-03-24T16:30:36.060Z,3.30
2019-03-24T16:33:07.675Z,3.12
2019-03-24T16:35:39.190Z,4.55
2019-03-24T16:38:10.648Z,3.00
2019-03-24T16:40:42.100Z,3.37
2019-03-24T16:43:13.996Z,2.70
2019-03-24T16:45:47.255Z,3.33
2019-03-24T16:48:18.569Z,3.15
2019-03-24T16:50:50.064Z,3.17
2019-03-24T16:53:23.144Z,3.80
2019-03-24T16:55:54.581Z,3.42
2019-03-24T16:58:25.991Z,3.83
2019-03-24T17:00:57.361Z,4.22
2019-03-24T17:03:28.896Z,3.92
2019-03-24T17:06:02.401Z,4.58
2019-03-24T17:08:33.989Z,4.10
2019-03-24T17:11:05.784Z,4.62
2019-03-24T17:13:37.210Z,4.80
2019-03-24T17:16:10.010Z,4.60
2019-03-24T17:18:42.439Z,4.53
2019-03-24T17:21:14.044Z,5.25
2019-03-24T17:23:45.462Z,4.37
2019-03-24T17:26:16.883Z,5.17
2019-03-24T17:28:48.289Z,4.72
2019-03-24T17:31:19.725Z,5.35
2019-03-24T17:33:53.272Z,5.08
2019-03-24T17:36:24.709Z,5.30
2019-03-24T17:38:56.212Z,4.25
2019-03-24T17:41:28.028Z,3.62
2019-03-24T17:44:03.351Z,3.85
2019-03-24T17:46:32.553Z,3.90
2019-03-24T17:49:04.189Z,4.10
2019-03-24T17:51:35.642Z,3.80
2019-03-24T17:54:07.448Z,3.72
2019-03-24T17:56:38.848Z,3.72
2019-03-24T17:59:10.322Z,3.83
2019-03-24T18:01:42.134Z,3.83
2019-03-24T18:04:13.545Z,3.50
2019-03-24T18:06:48.329Z,3.20
2019-03-24T18:09:19.768Z,3.02
2019-03-24T18:11:51.197Z,2.90
2019-03-24T18:14:22.629Z,3.00
2019-03-24T18:16:54.204Z,2.90
2019-03-24T18:19:25.729Z,2.77
2019-03-24T18:21:58.401Z,3.15
2019-03-24T18:24:31.152Z,2.95
2019-03-24T18:27:02.597Z,5.42
2019-03-24T18:29:34.216Z,3.10
2019-03-24T18:32:06.285Z,3.35
2019-03-24T18:34:37.705Z,2.92
2019-03-24T18:37:10.305Z,3.12
2019-03-24T18:39:41.776Z,3.33
2019-03-24T18:42:14.834Z,3.83
2019-03-24T18:44:47.778Z,2.98
2019-03-24T18:47:19.224Z,2.92
2019-03-24T18:49:52.065Z,3.33
2019-03-24T18:52:23.505Z,2.77
2019-03-24T18:54:54.943Z,3.20
2019-03-24T18:57:26.541Z,3.60
2019-03-24T18:59:59.566Z,2.83
2019-03-24T19:02:30.946Z,2.70
2019-03-24T19:05:02.368Z,3.60
2019-03-24T19:07:34.007Z,3.67
2019-03-24T19:10:06.127Z,3.08
2019-03-24T19:12:37.629Z,3.58
2019-03-24T19:15:10.716Z,3.08
2019-03-24T19:17:42.240Z,2.80
2019-03-24T19:20:14.814Z,3.00
2019-03-24T19:22:46.448Z,3.35
2019-03-24T19:25:18.516Z,3.20
2019-03-24T19:27:50.357Z,2.98
2019-03-24T19:30:27.985Z,3.02
2019-03-24T19:33:02.829Z,3.37
2019-03-24T19:35:34.451Z,3.72
2019-03-24T19:38:07.274Z,4.03
2019-03-24T19:40:38.815Z,3.83
2019-03-24T19:43:10.178Z,3.65
2019-03-24T19:45:41.580Z,3.50
2019-03-24T19:48:13.193Z,3.95
2019-03-24T19:50:44.560Z,4.22
2019-03-24T19:53:15.958Z,4.30
2019-03-24T19:55:47.345Z,4.50
2019-03-24T19:58:18.740Z,4.00
2019-03-24T20:00:50.168Z,4.08
2019-03-24T20:03:21.621Z,4.15
2019-03-24T20:05:53.025Z,3.58
2019-03-24T20:08:24.425Z,3.52
2019-03-24T20:10:55.849Z,3.90
2019-03-24T20:13:27.228Z,3.65
2019-03-24T20:15:58.686Z,3.72
2019-03-24T20:18:30.166Z,3.55
2019-03-24T20:21:01.510Z,3.60
2019-03-24T20:23:32.913Z,3.67
2019-03-24T20:26:04.616Z,4.00
2019-03-24T20:28:36.050Z,3.72
2019-03-24T20:31:07.481Z,3.47
2019-03-24T20:33:38.910Z,4.25
2019-03-24T20:36:10.282Z,4.08
2019-03-24T20:38:43.547Z,3.75
2019-03-24T20:41:14.944Z,4.03
2019-03-24T20:43:46.357Z,3.87
2019-03-24T20:46:18.812Z,4.05
2019-03-24T20:48:52.377Z,3.33
2019-03-24T20:51:24.961Z,3.65
2019-03-24T20:53:56.351Z,3.50
2019-03-24T20:56:27.770Z,3.45
2019-03-24T20:59:00.482Z,3.50
2019-03-24T21:01:31.887Z,3.42
2019-03-24T21:04:03.300Z,3.77
2019-03-24T21:06:34.719Z,3.65
2019-03-24T21:09:08.075Z,3.20
2019-03-24T21:11:39.488Z,3.10
2019-03-24T21:14:10.856Z,3.00
2019-03-24T21:16:42.259Z,2.80
2019-03-24T21:19:13.626Z,3.55
2019-03-24T21:21:45.013Z,3.17
2019-03-24T21:24:16.371Z,3.47
2019-03-24T21:26:47.767Z,3.05
2019-03-24T21:29:19.157Z,3.12
2019-03-24T21:31:50.754Z,3.30
2019-03-24T21:34:22.124Z,2.62
2019-03-24T21:36:55.007Z,2.30
2019-03-24T21:39:26.408Z,2.80
2019-03-24T21:41:57.808Z,2.75
2019-03-24T21:44:29.370Z,2.77
2019-03-24T21:47:00.828Z,2.83
2019-03-24T21:49:32.238Z,3.37
2019-03-24T21:52:03.729Z,2.77
2019-03-24T21:54:35.436Z,2.83
2019-03-24T21:57:09.662Z,2.83
2019-03-24T21:59:42.388Z,2.83
2019-03-24T22:02:16.950Z,3.00
2019-03-24T22:04:48.726Z,2.90
2019-03-24T22:07:21.556Z,2.65
2019-03-24T22:09:54.593Z,2.95
2019-03-24T22:12:26.273Z,2.62
2019-03-24T22:14:59.651Z,2.70
2019-03-24T22:17:35.172Z,2.58
2019-03-24T22:20:09.504Z,3.20
2019-03-24T22:22:40.881Z,2.52
2019-03-24T22:25:12.245Z,3.50
2019-03-24T22:27:46.402Z,2.90
2019-03-24T22:30:17.156Z,2.87
2019-03-24T22:32:48.536Z,3.25
2019-03-24T22:35:24.047Z,3.52
2019-03-24T22:38:00.293Z,3.42
2019-03-24T22:40:37.074Z,3.47
2019-03-24T22:43:13.817Z,3.62
2019-03-24T22:45:45.318Z,3.70
2019-03-24T22:48:18.804Z,3.22
2019-03-24T22:50:50.738Z,3.65
2019-03-24T22:53:22.116Z,3.10
2019-03-24T22:55:53.768Z,3.50
2019-03-24T22:58:25.857Z,2.67
2019-03-24T23:00:58.072Z,2.90
2019-03-24T23:03:29.502Z,2.77
2019-03-24T23:06:00.882Z,3.33
2019-03-24T23:08:32.688Z,3.55
2019-03-24T23:11:04.117Z,3.17
2019-03-24T23:13:35.502Z,3.45
2019-03-24T23:16:06.995Z,3.40
2019-03-24T23:18:38.407Z,3.33
2019-03-24T23:21:10.140Z,3.72
2019-03-24T23:23:41.583Z,3.35
2019-03-24T23:26:13.009Z,3.67
2019-03-24T23:28:44.462Z,2.95
2019-03-24T23:31:15.812Z,3.05
2019-03-24T23:33:47.208Z,3.22
2019-03-24T23:36:18.562Z,3.05
2019-03-24T23:38:50.030Z,3.20
2019-03-24T23:41:21.413Z,3.60
2019-03-24T23:43:52.797Z,3.70
2019-03-24T23:46:24.183Z,3.50
2019-03-24T23:48:55.564Z,3.70
2019-03-24T23:51:26.989Z,3.58
2019-03-24T23:53:58.385Z,3.70
2019-03-24T23:56:29.744Z,3.55
2019-03-24T23:59:01.160Z,4.15
